sensor_id;sensor_type;location;lat;lon;timestamp;pressure;altitude;pressure_sealevel;temperature;humidity
55317;BME280;41178;48.956;8.130;2023-03-03T00:04:00;99753.31;;;3.79;49.23
55317;BME280;41178;48.956;8.130;2023-03-03T00:09:01;99802.59;;;3.51;49.07
55317;BME280;41178;48.956;8.130;2023-03-03T00:14:17;99894.56;;;2.66;50.45
55317;BME280;41178;48.956;8.130;2023-03-03T00:19:21;99783.50;;;3.37;49.58
55317;BME280;41178;48.956;8.130;2023-03-03T00:24:34;99862.91;;;3.06;49.18
55317;BME280;41178;48.956;8.130;2023-03-03T00:29:45;99758.88;;;3.76;49.09
55317;BME280;41178;48.956;8.130;2023-03-03T00:34:47;99787.28;;;3.64;49.34
55317;BME280;41178;48.956;8.130;2023-03-03T00:39:49;99806.78;;;3.53;48.75
55317;BME280;41178;48.956;8.130;2023-03-03T00:44:58;99789.78;;;3.95;48.42
55317;BME280;41178;48.956;8.130;2023-03-03T00:55:07;99796.72;;;4.72;46.38
55317;BME280;41178;48.956;8.130;2023-03-03T01:00:14;99780.06;;;5.36;45.32
55317;BME280;41178;48.956;8.130;2023-03-03T01:05:16;99881.91;;;3.91;47.69
55317;BME280;41178;48.956;8.130;2023-03-03T01:10:19;99835.69;;;4.62;46.54
55317;BME280;41178;48.956;8.130;2023-03-03T01:15:20;99849.69;;;4.25;47.35
55317;BME280;41178;48.956;8.130;2023-03-03T01:20:22;99967.75;;;2.75;49.66
55317;BME280;41178;48.956;8.130;2023-03-03T01:25:24;99877.22;;;3.35;49.13
55317;BME280;41178;48.956;8.130;2023-03-03T01:30:26;99926.13;;;2.46;50.92
55317;BME280;41178;48.956;8.130;2023-03-03T01:35:28;99843.31;;;3.19;49.94
55317;BME280;41178;48.956;8.130;2023-03-03T01:40:30;99890.75;;;3.10;48.78
55317;BME280;41178;48.956;8.130;2023-03-03T01:51:22;99955.53;;;1.66;51.38
55317;BME280;41178;48.956;8.130;2023-03-03T01:56:26;99931.91;;;2.08;51.01
55317;BME280;41178;48.956;8.130;2023-03-03T02:01:28;99884.34;;;2.19;51.19
55317;BME280;41178;48.956;8.130;2023-03-03T02:06:35;99801.81;;;2.69;50.78
55317;BME280;41178;48.956;8.130;2023-03-03T02:11:41;99851.63;;;2.31;50.81
55317;BME280;41178;48.956;8.130;2023-03-03T02:16:44;99902.38;;;1.82;52.18
55317;BME280;41178;48.956;8.130;2023-03-03T02:21:46;99804.47;;;2.48;51.42
55317;BME280;41178;48.956;8.130;2023-03-03T02:26:48;99761.72;;;2.95;50.81
55317;BME280;41178;48.956;8.130;2023-03-03T02:31:50;99857.41;;;1.83;52.23
55317;BME280;41178;48.956;8.130;2023-03-03T02:36:51;99815.09;;;2.58;50.79
55317;BME280;41178;48.956;8.130;2023-03-03T02:42:22;99882.41;;;1.68;51.80
55317;BME280;41178;48.956;8.130;2023-03-03T02:47:27;99754.41;;;2.77;50.31
55317;BME280;41178;48.956;8.130;2023-03-03T02:52:29;99902.63;;;1.78;50.54
55317;BME280;41178;48.956;8.130;2023-03-03T02:57:30;99940.56;;;0.98;51.20
55317;BME280;41178;48.956;8.130;2023-03-03T03:02:32;99978.00;;;0.20;51.65
55317;BME280;41178;48.956;8.130;2023-03-03T03:07:34;99847.56;;;1.41;48.65
55317;BME280;41178;48.956;8.130;2023-03-03T03:12:36;99880.41;;;1.03;49.36
55317;BME280;41178;48.956;8.130;2023-03-03T03:17:38;99869.00;;;1.03;49.18
55317;BME280;41178;48.956;8.130;2023-03-03T03:22:39;99911.78;;;0.84;48.21
55317;BME280;41178;48.956;8.130;2023-03-03T03:27:41;99903.03;;;0.95;48.26
55317;BME280;41178;48.956;8.130;2023-03-03T03:32:43;99950.34;;;0.85;47.54
55317;BME280;41178;48.956;8.130;2023-03-03T03:37:44;99907.47;;;1.05;47.44
55317;BME280;41178;48.956;8.130;2023-03-03T03:42:46;99943.88;;;0.89;47.32
55317;BME280;41178;48.956;8.130;2023-03-03T03:47:48;99935.41;;;0.97;47.51
55317;BME280;41178;48.956;8.130;2023-03-03T03:52:49;99892.88;;;1.24;46.78
55317;BME280;41178;48.956;8.130;2023-03-03T03:57:51;99866.97;;;1.40;46.55
55317;BME280;41178;48.956;8.130;2023-03-03T04:02:52;99940.53;;;0.87;47.62
55317;BME280;41178;48.956;8.130;2023-03-03T04:07:54;99931.41;;;0.91;47.04
55317;BME280;41178;48.956;8.130;2023-03-03T04:12:57;99877.03;;;1.47;46.25
55317;BME280;41178;48.956;8.130;2023-03-03T04:17:59;99878.22;;;1.54;46.54
55317;BME280;41178;48.956;8.130;2023-03-03T04:23:00;99920.63;;;1.17;46.82
55317;BME280;41178;48.956;8.130;2023-03-03T04:28:02;99880.03;;;1.42;45.96
55317;BME280;41178;48.956;8.130;2023-03-03T04:33:06;99814.06;;;2.18;45.50
55317;BME280;41178;48.956;8.130;2023-03-03T04:38:07;99984.53;;;1.09;46.73
55317;BME280;41178;48.956;8.130;2023-03-03T04:43:09;99819.00;;;2.32;45.49
55317;BME280;41178;48.956;8.130;2023-03-03T04:48:11;99902.84;;;1.87;45.55
55317;BME280;41178;48.956;8.130;2023-03-03T04:53:13;99998.91;;;1.16;46.48
55317;BME280;41178;48.956;8.130;2023-03-03T04:58:14;99873.09;;;2.38;45.34
55317;BME280;41178;48.956;8.130;2023-03-03T05:03:16;99994.25;;;1.31;46.28
55317;BME280;41178;48.956;8.130;2023-03-03T05:08:18;99891.00;;;2.13;45.57
55317;BME280;41178;48.956;8.130;2023-03-03T05:13:20;99906.88;;;2.02;45.89
55317;BME280;41178;48.956;8.130;2023-03-03T05:18:23;99966.22;;;1.53;47.27
55317;BME280;41178;48.956;8.130;2023-03-03T05:23:25;100075.41;;;0.44;48.35
55317;BME280;41178;48.956;8.130;2023-03-03T05:28:27;100036.81;;;0.80;47.82
55317;BME280;41178;48.956;8.130;2023-03-03T05:33:29;100075.59;;;0.29;48.99
55317;BME280;41178;48.956;8.130;2023-03-03T05:38:30;99941.75;;;1.28;48.06
55317;BME280;41178;48.956;8.130;2023-03-03T05:43:32;100057.59;;;0.23;49.58
55317;BME280;41178;48.956;8.130;2023-03-03T05:48:34;100051.75;;;0.07;50.23
55317;BME280;41178;48.956;8.130;2023-03-03T05:53:35;99986.38;;;0.49;49.99
55317;BME280;41178;48.956;8.130;2023-03-03T05:58:37;100082.22;;;-0.28;51.26
55317;BME280;41178;48.956;8.130;2023-03-03T06:03:39;100041.47;;;-0.09;51.55
55317;BME280;41178;48.956;8.130;2023-03-03T06:08:40;99969.78;;;0.24;51.26
55317;BME280;41178;48.956;8.130;2023-03-03T06:13:42;100084.53;;;-0.49;51.99
55317;BME280;41178;48.956;8.130;2023-03-03T06:18:44;99969.38;;;0.42;50.78
55317;BME280;41178;48.956;8.130;2023-03-03T06:23:45;100037.63;;;0.08;50.66
55317;BME280;41178;48.956;8.130;2023-03-03T06:28:47;100014.81;;;0.33;50.23
55317;BME280;41178;48.956;8.130;2023-03-03T06:33:50;100032.44;;;0.19;50.65
55317;BME280;41178;48.956;8.130;2023-03-03T06:38:52;100001.41;;;0.36;50.45
55317;BME280;41178;48.956;8.130;2023-03-03T06:43:53;100080.06;;;0.03;50.98
55317;BME280;41178;48.956;8.130;2023-03-03T06:48:55;100001.69;;;0.44;50.35
55317;BME280;41178;48.956;8.130;2023-03-03T06:53:59;99950.25;;;0.51;50.85
55317;BME280;41178;48.956;8.130;2023-03-03T06:59:09;100130.44;;;-0.80;52.51
55317;BME280;41178;48.956;8.130;2023-03-03T07:09:25;99965.53;;;0.46;50.91
55317;BME280;41178;48.956;8.130;2023-03-03T07:14:28;99896.56;;;1.55;49.58
55317;BME280;41178;48.956;8.130;2023-03-03T07:19:33;99905.28;;;1.67;49.23
55317;BME280;41178;48.956;8.130;2023-03-03T07:24:36;99911.75;;;1.74;49.35
55317;BME280;41178;48.956;8.130;2023-03-03T07:29:37;99915.22;;;2.19;48.49
55317;BME280;41178;48.956;8.130;2023-03-03T07:34:46;99907.81;;;2.33;48.46
55317;BME280;41178;48.956;8.130;2023-03-03T07:39:49;99962.53;;;1.99;49.18
55317;BME280;41178;48.956;8.130;2023-03-03T07:44:53;100036.84;;;1.49;49.97
55317;BME280;41178;48.956;8.130;2023-03-03T07:50:14;100087.75;;;1.38;49.65
55317;BME280;41178;48.956;8.130;2023-03-03T07:55:37;100029.41;;;1.88;48.56
55317;BME280;41178;48.956;8.130;2023-03-03T08:11:48;100055.84;;;1.19;52.20
55317;BME280;41178;48.956;8.130;2023-03-03T08:16:50;100143.34;;;0.76;51.65
55317;BME280;41178;48.956;8.130;2023-03-03T08:21:55;100099.78;;;0.59;52.85
55317;BME280;41178;48.956;8.130;2023-03-03T08:27:00;100040.16;;;0.93;53.26
55317;BME280;41178;48.956;8.130;2023-03-03T08:32:02;99987.28;;;1.08;53.45
55317;BME280;41178;48.956;8.130;2023-03-03T08:37:04;100037.84;;;0.77;53.17
55317;BME280;41178;48.956;8.130;2023-03-03T08:42:06;99975.72;;;1.44;52.66
55317;BME280;41178;48.956;8.130;2023-03-03T08:47:08;100021.13;;;1.36;52.51
55317;BME280;41178;48.956;8.130;2023-03-03T08:52:09;99963.72;;;1.63;52.41
55317;BME280;41178;48.956;8.130;2023-03-03T08:57:11;100042.63;;;1.08;53.04
55317;BME280;41178;48.956;8.130;2023-03-03T09:02:12;99890.16;;;2.76;50.88
55317;BME280;41178;48.956;8.130;2023-03-03T09:07:14;100033.34;;;1.94;51.28
55317;BME280;41178;48.956;8.130;2023-03-03T09:12:19;100004.09;;;2.94;50.04
55317;BME280;41178;48.956;8.130;2023-03-03T09:17:29;100078.84;;;2.41;50.24
55317;BME280;41178;48.956;8.130;2023-03-03T09:22:35;100093.88;;;2.29;50.49
55317;BME280;41178;48.956;8.130;2023-03-03T09:27:38;100069.63;;;2.47;50.76
55317;BME280;41178;48.956;8.130;2023-03-03T09:32:41;99955.41;;;4.38;48.30
55317;BME280;41178;48.956;8.130;2023-03-03T09:37:43;99962.75;;;5.40;46.01
55317;BME280;41178;48.956;8.130;2023-03-03T09:43:14;100019.59;;;4.61;47.15
55317;BME280;41178;48.956;8.130;2023-03-03T09:59:13;100078.75;;;4.81;45.07
55317;BME280;41178;48.956;8.130;2023-03-03T10:20:37;100095.56;;;5.96;43.12
55317;BME280;41178;48.956;8.130;2023-03-03T10:25:57;100109.16;;;5.93;43.22
55317;BME280;41178;48.956;8.130;2023-03-03T10:58:43;100183.28;;;5.57;43.81
55317;BME280;41178;48.956;8.130;2023-03-03T11:12:17;100218.53;;;3.87;45.43
55317;BME280;41178;48.956;8.130;2023-03-03T11:23:14;100172.00;;;5.25;43.13
55317;BME280;41178;48.956;8.130;2023-03-03T11:33:30;100206.47;;;5.16;43.04
55317;BME280;41178;48.956;8.130;2023-03-03T11:38:44;100199.66;;;5.32;43.36
55317;BME280;41178;48.956;8.130;2023-03-03T11:43:58;100128.22;;;6.43;42.94
55317;BME280;41178;48.956;8.130;2023-03-03T11:49:04;100127.63;;;6.22;42.95
55317;BME280;41178;48.956;8.130;2023-03-03T11:54:14;100108.16;;;6.49;42.73
55317;BME280;41178;48.956;8.130;2023-03-03T11:59:46;100084.72;;;6.98;42.72
55317;BME280;41178;48.956;8.130;2023-03-03T12:04:53;100133.91;;;6.49;42.46
55317;BME280;41178;48.956;8.130;2023-03-03T12:10:06;100186.78;;;5.18;43.59
55317;BME280;41178;48.956;8.130;2023-03-03T12:31:55;100157.44;;;5.68;43.45
55317;BME280;41178;48.956;8.130;2023-03-03T12:47:45;100097.38;;;6.51;43.00
55317;BME280;41178;48.956;8.130;2023-03-03T12:58:29;100106.41;;;6.58;42.69
55317;BME280;41178;48.956;8.130;2023-03-03T13:03:44;100130.22;;;6.32;43.59
55317;BME280;41178;48.956;8.130;2023-03-03T13:19:32;100060.00;;;7.32;41.95
55317;BME280;41178;48.956;8.130;2023-03-03T13:30:01;100125.25;;;6.19;43.58
55317;BME280;41178;48.956;8.130;2023-03-03T13:35:08;100104.75;;;6.29;43.60
55317;BME280;41178;48.956;8.130;2023-03-03T13:40:23;100111.34;;;6.35;43.88
55317;BME280;41178;48.956;8.130;2023-03-03T13:45:40;100110.38;;;6.26;44.49
55317;BME280;41178;48.956;8.130;2023-03-03T13:51:03;100082.19;;;5.87;43.98
55317;BME280;41178;48.956;8.130;2023-03-03T14:02:04;99984.50;;;7.76;42.70
55317;BME280;41178;48.956;8.130;2023-03-03T14:07:48;100087.69;;;6.32;44.05
55317;BME280;41178;48.956;8.130;2023-03-03T14:18:30;100053.66;;;6.81;43.38
55317;BME280;41178;48.956;8.130;2023-03-03T14:24:10;100030.66;;;7.16;43.01
55317;BME280;41178;48.956;8.130;2023-03-03T14:34:37;99978.75;;;7.89;42.40
55317;BME280;41178;48.956;8.130;2023-03-03T14:39:40;100029.44;;;6.56;43.22
55317;BME280;41178;48.956;8.130;2023-03-03T14:49:46;99982.63;;;8.03;41.96
55317;BME280;41178;48.956;8.130;2023-03-03T14:54:54;100037.31;;;7.20;42.13
55317;BME280;41178;48.956;8.130;2023-03-03T15:00:31;100032.50;;;6.97;42.38
55317;BME280;41178;48.956;8.130;2023-03-03T15:05:31;99956.88;;;8.61;40.44
55317;BME280;41178;48.956;8.130;2023-03-03T15:26:12;100005.00;;;7.41;41.83
55317;BME280;41178;48.956;8.130;2023-03-03T15:42:09;99995.94;;;8.03;41.29
55317;BME280;41178;48.956;8.130;2023-03-03T15:52:47;99973.63;;;8.04;41.46
55317;BME280;41178;48.956;8.130;2023-03-03T16:03:13;99945.88;;;8.47;41.93
55317;BME280;41178;48.956;8.130;2023-03-03T16:08:22;99985.56;;;7.83;42.39
55317;BME280;41178;48.956;8.130;2023-03-03T16:23:55;100003.72;;;7.88;41.39
55317;BME280;41178;48.956;8.130;2023-03-03T16:29:10;100008.06;;;7.89;41.64
55317;BME280;41178;48.956;8.130;2023-03-03T16:39:58;100037.00;;;6.79;43.13
55317;BME280;41178;48.956;8.130;2023-03-03T16:55:35;100042.72;;;6.84;42.74
55317;BME280;41178;48.956;8.130;2023-03-03T17:00:56;100073.00;;;6.10;43.40
55317;BME280;41178;48.956;8.130;2023-03-03T17:34:07;100109.63;;;5.78;43.06
55317;BME280;41178;48.956;8.130;2023-03-03T17:44:59;100112.28;;;5.68;43.01
55317;BME280;41178;48.956;8.130;2023-03-03T18:27:42;100113.16;;;5.69;42.46
55317;BME280;41178;48.956;8.130;2023-03-03T18:37:56;100095.88;;;6.66;41.07
55317;BME280;41178;48.956;8.130;2023-03-03T18:42:58;100193.34;;;5.53;42.09
55317;BME280;41178;48.956;8.130;2023-03-03T18:53:20;100197.25;;;4.90;43.43
55317;BME280;41178;48.956;8.130;2023-03-03T19:03:55;100154.66;;;5.31;43.82
55317;BME280;41178;48.956;8.130;2023-03-03T19:09:04;100151.06;;;5.32;43.30
55317;BME280;41178;48.956;8.130;2023-03-03T19:14:30;100115.81;;;5.59;43.28
55317;BME280;41178;48.956;8.130;2023-03-03T19:19:32;100219.66;;;4.67;44.51
55317;BME280;41178;48.956;8.130;2023-03-03T19:35:39;100183.25;;;4.79;43.82
55317;BME280;41178;48.956;8.130;2023-03-03T19:51:47;100199.91;;;5.00;43.75
55317;BME280;41178;48.956;8.130;2023-03-03T19:56:55;100236.72;;;4.43;44.44
55317;BME280;41178;48.956;8.130;2023-03-03T20:12:42;100238.41;;;4.23;45.40
55317;BME280;41178;48.956;8.130;2023-03-03T20:40:14;100141.50;;;4.71;45.24
55317;BME280;41178;48.956;8.130;2023-03-03T20:56:07;100217.91;;;3.94;46.15
55317;BME280;41178;48.956;8.130;2023-03-03T21:01:16;100124.25;;;4.86;45.28
55317;BME280;41178;48.956;8.130;2023-03-03T21:06:37;100127.59;;;4.98;44.54
55317;BME280;41178;48.956;8.130;2023-03-03T21:11:45;100158.16;;;5.12;44.19
55317;BME280;41178;48.956;8.130;2023-03-03T21:16:57;100184.81;;;5.01;44.29
55317;BME280;41178;48.956;8.130;2023-03-03T21:22:04;100159.28;;;4.90;44.59
55317;BME280;41178;48.956;8.130;2023-03-03T21:27:31;100197.63;;;4.66;44.28
55317;BME280;41178;48.956;8.130;2023-03-03T21:32:41;100164.97;;;4.75;44.19
55317;BME280;41178;48.956;8.130;2023-03-03T21:37:49;100165.00;;;4.95;44.15
55317;BME280;41178;48.956;8.130;2023-03-03T21:42:53;100258.16;;;4.09;45.02
55317;BME280;41178;48.956;8.130;2023-03-03T21:48:10;100272.94;;;3.91;45.34
55317;BME280;41178;48.956;8.130;2023-03-03T21:53:12;100220.44;;;4.27;45.09
55317;BME280;41178;48.956;8.130;2023-03-03T21:58:15;100186.69;;;4.50;44.55
55317;BME280;41178;48.956;8.130;2023-03-03T22:03:17;100094.59;;;5.59;43.49
55317;BME280;41178;48.956;8.130;2023-03-03T22:08:28;100143.44;;;5.57;43.21
55317;BME280;41178;48.956;8.130;2023-03-03T22:13:33;100250.63;;;4.35;44.40
55317;BME280;41178;48.956;8.130;2023-03-03T22:18:44;100238.56;;;4.43;44.66
55317;BME280;41178;48.956;8.130;2023-03-03T22:23:46;100155.91;;;4.98;44.19
55317;BME280;41178;48.956;8.130;2023-03-03T22:29:08;100180.19;;;4.73;44.27
55317;BME280;41178;48.956;8.130;2023-03-03T22:34:42;100164.00;;;4.96;44.13
55317;BME280;41178;48.956;8.130;2023-03-03T22:40:13;100182.72;;;4.94;43.92
55317;BME280;41178;48.956;8.130;2023-03-03T22:51:23;100177.13;;;4.98;43.86
55317;BME280;41178;48.956;8.130;2023-03-03T22:56:55;100286.94;;;4.02;44.82
55317;BME280;41178;48.956;8.130;2023-03-03T23:01:58;100246.81;;;3.44;46.77
55317;BME280;41178;48.956;8.130;2023-03-03T23:07:46;100321.41;;;2.70;47.22
55317;BME280;41178;48.956;8.130;2023-03-03T23:25:45;100140.06;;;4.47;44.97
55317;BME280;41178;48.956;8.130;2023-03-03T23:30:46;100309.63;;;2.29;48.22
55317;BME280;41178;48.956;8.130;2023-03-03T23:35:50;100310.81;;;2.13;48.75
55317;BME280;41178;48.956;8.130;2023-03-03T23:40:52;100261.34;;;2.72;47.28
55317;BME280;41178;48.956;8.130;2023-03-03T23:45:53;100270.75;;;2.42;48.40
55317;BME280;41178;48.956;8.130;2023-03-03T23:50:55;100173.66;;;2.78;48.52
55317;BME280;41178;48.956;8.130;2023-03-03T23:55:57;100235.66;;;2.63;47.92
